Aeroporto :
LOGIN :

Iscrizione | Disclaimer

   EN    FR    IT 

 










Sommario :    VFR   VFR Marginale   IFR   IFR Intensivo   IFR Molto Intensivo
Visibilità : 
Base nubi : 
>= 8 km
>= 3000ft
5 / 8 km
1000 / 3000 ft
1500m / 5 km
500 / 1000 ft
800 / 1500m
200 / 500 ft
< 800m
< 200 ft
Simboli :   Temporali  Nebbia  Neve Forte  Precipitazioni Forti  Vento > 20 kt
SIGMETs :   Varie  Temporali  Ghiacco  Turbolenza  Onda orograficha  Ceneri Vulcaniche






- Altitudine del aeroporto : 364 ft
- Codice IATA : FRA


EDDF - Frankfurt Int.

ULTIMO METAR :
  • 281250Z 24014KT 9999 VCSH FEW012 FEW024CB BKN035 07/00 Q0998 NOSIG

METARs OBSOLETI :
  • 281220Z 23017KT 9999 VCSH FEW012 FEW020CB SCT025 BKN035 06/01 Q0998 NOSIG
  • 281150Z 23018KT 9999 VCSH FEW012 FEW020CB SCT025 BKN035 06/01 Q0998 NOSIG
  • 281120Z 23019KT 9999 VCSH FEW012 FEW020CB BKN032 05/01 Q0997 NOSIG
  • 281050Z 23016G27KT 9999 VCSH FEW010 FEW018CB SCT048 05/01 Q0997 NOSIG
  • 281020Z 23014KT 9999 -SHRA FEW010 SCT020CB BKN025 05/02 Q0997 TEMPO 23025G40KT SHRA
  • 280950Z 22015KT 9999 VCSH FEW010 FEW018CB SCT048 05/02 Q0996 TEMPO 23025G40KT SHRA

TAF TAF EDDF
Valido dal 28 a 12 ore il 29 a 18 ore UTC


281100Z 2812/2918 24020G35KT 9999 BKN025
TEMPO 2812/2817 4000 SHRA BKN015CB
PROB30
TEMPO 2812/2815 24025G45KT 2000 TSGSRA BKN012CB
BECMG 2819/2822 22010KT
TEMPO 2910/2915 24015G25KT



MetMap, La meteo Aeronautica in un colpo d'occhio ! - Copyright ORBIFLY Dicembre 2007 - Disclaimer

ORBIFLY MET'MAP TEAM :

Programmazione e sviluppo : Alexandra Zaïnal
Concezione : Baudouin d'Aumeries
Aiuto per la programmazione : Marc-Olivier Méhu
Supporto tecnico e logistico : Manuel Goepfert
Aiuto per la traduzione : Arnaldo La Scala

Contatto : metmap@orbifly.com




FONTI E CREDITI :

   NOAA